sensor_id;sensor_type;location;lat;lon;timestamp;P1;durP1;ratioP1;P2;durP2;ratioP2
15480;SDS011;7842;50.904;6.670;2023-03-31T00:00:50;5.57;;;1.38;;
15480;SDS011;7842;50.904;6.670;2023-03-31T00:03:17;6.90;;;1.80;;
15480;SDS011;7842;50.904;6.670;2023-03-31T00:05:45;4.32;;;1.70;;
15480;SDS011;7842;50.904;6.670;2023-03-31T00:08:12;5.53;;;1.63;;
15480;SDS011;7842;50.904;6.670;2023-03-31T00:10:42;4.88;;;1.77;;
15480;SDS011;7842;50.904;6.670;2023-03-31T00:13:09;5.27;;;1.87;;
15480;SDS011;7842;50.904;6.670;2023-03-31T00:15:35;4.63;;;1.70;;
15480;SDS011;7842;50.904;6.670;2023-03-31T00:18:01;5.27;;;1.60;;
15480;SDS011;7842;50.904;6.670;2023-03-31T00:20:27;4.47;;;1.60;;
15480;SDS011;7842;50.904;6.670;2023-03-31T00:22:52;4.80;;;1.63;;
15480;SDS011;7842;50.904;6.670;2023-03-31T00:25:19;5.43;;;1.83;;
15480;SDS011;7842;50.904;6.670;2023-03-31T00:27:45;3.72;;;1.30;;
15480;SDS011;7842;50.904;6.670;2023-03-31T00:30:14;4.05;;;1.60;;
15480;SDS011;7842;50.904;6.670;2023-03-31T00:32:43;4.18;;;1.60;;
15480;SDS011;7842;50.904;6.670;2023-03-31T00:35:09;6.78;;;1.65;;
15480;SDS011;7842;50.904;6.670;2023-03-31T00:37:34;5.47;;;1.55;;
15480;SDS011;7842;50.904;6.670;2023-03-31T00:40:00;5.00;;;1.83;;
15480;SDS011;7842;50.904;6.670;2023-03-31T00:42:33;5.03;;;1.67;;
15480;SDS011;7842;50.904;6.670;2023-03-31T00:47:41;5.50;;;1.60;;
15480;SDS011;7842;50.904;6.670;2023-03-31T00:50:18;4.75;;;1.60;;
15480;SDS011;7842;50.904;6.670;2023-03-31T00:52:47;5.45;;;1.98;;
15480;SDS011;7842;50.904;6.670;2023-03-31T00:55:20;6.82;;;2.60;;
15480;SDS011;7842;50.904;6.670;2023-03-31T00:57:52;6.32;;;2.30;;
15480;SDS011;7842;50.904;6.670;2023-03-31T01:00:19;6.22;;;2.30;;
15480;SDS011;7842;50.904;6.670;2023-03-31T01:02:48;5.20;;;2.25;;
15480;SDS011;7842;50.904;6.670;2023-03-31T01:05:21;5.25;;;1.92;;
15480;SDS011;7842;50.904;6.670;2023-03-31T01:07:50;7.38;;;1.90;;
15480;SDS011;7842;50.904;6.670;2023-03-31T01:10:18;6.10;;;1.80;;
15480;SDS011;7842;50.904;6.670;2023-03-31T01:12:44;5.28;;;1.80;;
15480;SDS011;7842;50.904;6.670;2023-03-31T01:15:14;7.67;;;1.93;;
15480;SDS011;7842;50.904;6.670;2023-03-31T01:17:40;6.40;;;2.10;;
15480;SDS011;7842;50.904;6.670;2023-03-31T01:45:39;7.60;;;2.20;;
15480;SDS011;7842;50.904;6.670;2023-03-31T01:48:32;8.25;;;2.38;;
15480;SDS011;7842;50.904;6.670;2023-03-31T01:51:06;8.38;;;2.70;;
15480;SDS011;7842;50.904;6.670;2023-03-31T01:56:31;6.43;;;2.38;;
15480;SDS011;7842;50.904;6.670;2023-03-31T02:02:01;7.43;;;2.20;;
15480;SDS011;7842;50.904;6.670;2023-03-31T02:04:42;8.27;;;2.80;;
15480;SDS011;7842;50.904;6.670;2023-03-31T02:07:16;6.93;;;2.30;;
15480;SDS011;7842;50.904;6.670;2023-03-31T02:09:48;7.22;;;2.40;;
15480;SDS011;7842;50.904;6.670;2023-03-31T02:12:20;9.48;;;2.67;;
15480;SDS011;7842;50.904;6.670;2023-03-31T02:14:49;7.00;;;2.28;;
15480;SDS011;7842;50.904;6.670;2023-03-31T02:17:17;7.80;;;2.28;;
15480;SDS011;7842;50.904;6.670;2023-03-31T02:19:47;7.65;;;2.47;;
15480;SDS011;7842;50.904;6.670;2023-03-31T02:22:16;8.88;;;2.40;;
15480;SDS011;7842;50.904;6.670;2023-03-31T02:24:46;6.10;;;2.20;;
15480;SDS011;7842;50.904;6.670;2023-03-31T02:27:16;8.93;;;2.80;;
15480;SDS011;7842;50.904;6.670;2023-03-31T02:29:47;6.95;;;2.03;;
15480;SDS011;7842;50.904;6.670;2023-03-31T02:34:44;6.88;;;2.30;;
15480;SDS011;7842;50.904;6.670;2023-03-31T02:37:10;8.25;;;2.35;;
15480;SDS011;7842;50.904;6.670;2023-03-31T02:39:37;6.27;;;1.90;;
15480;SDS011;7842;50.904;6.670;2023-03-31T02:42:05;6.70;;;2.10;;
15480;SDS011;7842;50.904;6.670;2023-03-31T02:44:35;5.00;;;1.90;;
15480;SDS011;7842;50.904;6.670;2023-03-31T02:47:06;8.25;;;2.25;;
15480;SDS011;7842;50.904;6.670;2023-03-31T02:49:35;8.10;;;2.60;;
15480;SDS011;7842;50.904;6.670;2023-03-31T02:52:22;5.53;;;1.90;;
15480;SDS011;7842;50.904;6.670;2023-03-31T02:58:04;6.80;;;2.13;;
15480;SDS011;7842;50.904;6.670;2023-03-31T03:01:14;8.68;;;2.35;;
15480;SDS011;7842;50.904;6.670;2023-03-31T03:09:13;8.65;;;2.20;;
15480;SDS011;7842;50.904;6.670;2023-03-31T03:12:10;6.55;;;2.17;;
15480;SDS011;7842;50.904;6.670;2023-03-31T03:17:05;7.53;;;2.50;;
15480;SDS011;7842;50.904;6.670;2023-03-31T03:19:34;7.07;;;2.28;;
15480;SDS011;7842;50.904;6.670;2023-03-31T03:22:00;6.93;;;2.30;;
15480;SDS011;7842;50.904;6.670;2023-03-31T03:24:28;5.60;;;2.40;;
15480;SDS011;7842;50.904;6.670;2023-03-31T03:26:58;5.63;;;1.92;;
15480;SDS011;7842;50.904;6.670;2023-03-31T03:29:24;6.07;;;2.08;;
15480;SDS011;7842;50.904;6.670;2023-03-31T03:31:51;6.82;;;1.90;;
15480;SDS011;7842;50.904;6.670;2023-03-31T03:34:16;5.00;;;1.90;;
15480;SDS011;7842;50.904;6.670;2023-03-31T03:36:44;4.72;;;1.98;;
15480;SDS011;7842;50.904;6.670;2023-03-31T03:39:10;5.10;;;2.03;;
15480;SDS011;7842;50.904;6.670;2023-03-31T03:41:36;6.60;;;1.70;;
15480;SDS011;7842;50.904;6.670;2023-03-31T03:44:02;5.25;;;1.85;;
15480;SDS011;7842;50.904;6.670;2023-03-31T03:46:28;4.68;;;1.63;;
15480;SDS011;7842;50.904;6.670;2023-03-31T03:48:54;3.78;;;1.70;;
15480;SDS011;7842;50.904;6.670;2023-03-31T03:51:20;6.07;;;1.90;;
15480;SDS011;7842;50.904;6.670;2023-03-31T03:53:46;5.13;;;1.60;;
15480;SDS011;7842;50.904;6.670;2023-03-31T03:56:12;5.95;;;1.90;;
15480;SDS011;7842;50.904;6.670;2023-03-31T03:58:37;3.58;;;1.63;;
15480;SDS011;7842;50.904;6.670;2023-03-31T04:01:06;4.82;;;1.83;;
15480;SDS011;7842;50.904;6.670;2023-03-31T04:03:31;5.70;;;1.70;;
15480;SDS011;7842;50.904;6.670;2023-03-31T04:05:57;5.30;;;1.85;;
15480;SDS011;7842;50.904;6.670;2023-03-31T04:08:23;4.03;;;1.52;;
15480;SDS011;7842;50.904;6.670;2023-03-31T04:10:48;3.23;;;1.47;;
15480;SDS011;7842;50.904;6.670;2023-03-31T04:13:14;4.10;;;1.60;;
15480;SDS011;7842;50.904;6.670;2023-03-31T04:15:41;5.10;;;1.65;;
15480;SDS011;7842;50.904;6.670;2023-03-31T04:18:07;4.33;;;1.43;;
15480;SDS011;7842;50.904;6.670;2023-03-31T04:20:46;2.33;;;1.10;;
15480;SDS011;7842;50.904;6.670;2023-03-31T04:23:18;5.25;;;1.40;;
15480;SDS011;7842;50.904;6.670;2023-03-31T04:25:44;2.85;;;1.20;;
15480;SDS011;7842;50.904;6.670;2023-03-31T04:28:10;3.78;;;1.30;;
15480;SDS011;7842;50.904;6.670;2023-03-31T04:30:38;3.45;;;1.23;;
15480;SDS011;7842;50.904;6.670;2023-03-31T04:33:04;3.55;;;1.23;;
15480;SDS011;7842;50.904;6.670;2023-03-31T04:35:30;2.33;;;1.10;;
15480;SDS011;7842;50.904;6.670;2023-03-31T04:38:13;4.60;;;1.23;;
15480;SDS011;7842;50.904;6.670;2023-03-31T04:40:42;3.20;;;1.17;;
15480;SDS011;7842;50.904;6.670;2023-03-31T04:43:10;2.85;;;1.10;;
15480;SDS011;7842;50.904;6.670;2023-03-31T04:45:36;3.60;;;1.40;;
15480;SDS011;7842;50.904;6.670;2023-03-31T04:48:02;4.07;;;1.10;;
15480;SDS011;7842;50.904;6.670;2023-03-31T04:50:28;2.83;;;1.30;;
15480;SDS011;7842;50.904;6.670;2023-03-31T04:52:55;3.78;;;1.48;;
15480;SDS011;7842;50.904;6.670;2023-03-31T04:55:21;3.38;;;1.52;;
15480;SDS011;7842;50.904;6.670;2023-03-31T04:57:47;3.90;;;1.50;;
15480;SDS011;7842;50.904;6.670;2023-03-31T05:00:13;3.85;;;1.45;;
15480;SDS011;7842;50.904;6.670;2023-03-31T05:02:42;4.15;;;1.40;;
15480;SDS011;7842;50.904;6.670;2023-03-31T05:05:08;3.53;;;1.20;;
15480;SDS011;7842;50.904;6.670;2023-03-31T05:07:35;2.83;;;1.23;;
15480;SDS011;7842;50.904;6.670;2023-03-31T05:10:01;2.88;;;1.13;;
15480;SDS011;7842;50.904;6.670;2023-03-31T05:12:27;3.63;;;1.10;;
15480;SDS011;7842;50.904;6.670;2023-03-31T05:14:53;3.40;;;0.90;;
15480;SDS011;7842;50.904;6.670;2023-03-31T05:17:19;3.25;;;1.13;;
15480;SDS011;7842;50.904;6.670;2023-03-31T05:19:46;2.85;;;1.30;;
15480;SDS011;7842;50.904;6.670;2023-03-31T05:22:12;2.28;;;1.00;;
15480;SDS011;7842;50.904;6.670;2023-03-31T05:24:38;3.25;;;1.23;;
15480;SDS011;7842;50.904;6.670;2023-03-31T05:27:06;2.08;;;1.10;;
15480;SDS011;7842;50.904;6.670;2023-03-31T05:29:32;3.28;;;1.17;;
15480;SDS011;7842;50.904;6.670;2023-03-31T05:31:58;3.27;;;1.37;;
15480;SDS011;7842;50.904;6.670;2023-03-31T05:34:25;1.88;;;0.98;;
15480;SDS011;7842;50.904;6.670;2023-03-31T05:36:51;3.93;;;1.20;;
15480;SDS011;7842;50.904;6.670;2023-03-31T05:39:17;2.55;;;1.33;;
15480;SDS011;7842;50.904;6.670;2023-03-31T05:41:43;2.08;;;1.10;;
15480;SDS011;7842;50.904;6.670;2023-03-31T05:44:09;3.22;;;1.15;;
15480;SDS011;7842;50.904;6.670;2023-03-31T05:46:35;3.33;;;1.27;;
15480;SDS011;7842;50.904;6.670;2023-03-31T05:49:01;2.47;;;0.90;;
15480;SDS011;7842;50.904;6.670;2023-03-31T05:51:27;3.03;;;1.00;;
15480;SDS011;7842;50.904;6.670;2023-03-31T05:53:55;3.27;;;0.97;;
15480;SDS011;7842;50.904;6.670;2023-03-31T05:56:24;1.63;;;0.75;;
15480;SDS011;7842;50.904;6.670;2023-03-31T05:58:51;2.67;;;0.80;;
15480;SDS011;7842;50.904;6.670;2023-03-31T06:01:17;3.10;;;1.00;;
15480;SDS011;7842;50.904;6.670;2023-03-31T06:03:47;2.78;;;0.88;;
15480;SDS011;7842;50.904;6.670;2023-03-31T06:06:14;1.50;;;0.65;;
15480;SDS011;7842;50.904;6.670;2023-03-31T06:08:40;2.05;;;1.00;;
15480;SDS011;7842;50.904;6.670;2023-03-31T06:11:09;1.38;;;0.70;;
15480;SDS011;7842;50.904;6.670;2023-03-31T06:13:36;1.35;;;0.73;;
15480;SDS011;7842;50.904;6.670;2023-03-31T06:16:03;1.02;;;0.80;;
15480;SDS011;7842;50.904;6.670;2023-03-31T06:18:30;1.93;;;0.90;;
15480;SDS011;7842;50.904;6.670;2023-03-31T06:20:56;2.38;;;0.82;;
15480;SDS011;7842;50.904;6.670;2023-03-31T06:23:22;2.40;;;0.88;;
15480;SDS011;7842;50.904;6.670;2023-03-31T06:25:49;2.75;;;0.73;;
15480;SDS011;7842;50.904;6.670;2023-03-31T06:28:15;2.22;;;1.02;;
15480;SDS011;7842;50.904;6.670;2023-03-31T06:30:41;3.10;;;1.10;;
15480;SDS011;7842;50.904;6.670;2023-03-31T06:33:07;3.20;;;1.00;;
15480;SDS011;7842;50.904;6.670;2023-03-31T06:35:36;2.80;;;1.10;;
15480;SDS011;7842;50.904;6.670;2023-03-31T06:38:02;3.22;;;1.02;;
15480;SDS011;7842;50.904;6.670;2023-03-31T06:40:28;3.17;;;1.40;;
15480;SDS011;7842;50.904;6.670;2023-03-31T06:42:54;4.00;;;1.53;;
15480;SDS011;7842;50.904;6.670;2023-03-31T06:45:19;2.03;;;1.00;;
15480;SDS011;7842;50.904;6.670;2023-03-31T06:47:45;2.10;;;0.80;;
15480;SDS011;7842;50.904;6.670;2023-03-31T06:50:11;3.63;;;1.50;;
15480;SDS011;7842;50.904;6.670;2023-03-31T06:52:37;3.00;;;1.57;;
15480;SDS011;7842;50.904;6.670;2023-03-31T06:55:04;1.65;;;0.80;;
15480;SDS011;7842;50.904;6.670;2023-03-31T06:57:30;2.37;;;1.10;;
15480;SDS011;7842;50.904;6.670;2023-03-31T06:59:58;1.52;;;0.90;;
15480;SDS011;7842;50.904;6.670;2023-03-31T07:02:24;2.03;;;0.88;;
15480;SDS011;7842;50.904;6.670;2023-03-31T07:04:50;2.20;;;1.20;;
15480;SDS011;7842;50.904;6.670;2023-03-31T07:07:16;1.40;;;0.80;;
15480;SDS011;7842;50.904;6.670;2023-03-31T07:09:42;2.90;;;0.82;;
15480;SDS011;7842;50.904;6.670;2023-03-31T07:12:08;3.20;;;0.65;;
15480;SDS011;7842;50.904;6.670;2023-03-31T07:14:34;2.22;;;0.98;;
15480;SDS011;7842;50.904;6.670;2023-03-31T07:17:00;2.73;;;0.90;;
15480;SDS011;7842;50.904;6.670;2023-03-31T07:19:26;2.05;;;0.93;;
15480;SDS011;7842;50.904;6.670;2023-03-31T07:21:52;1.52;;;0.82;;
15480;SDS011;7842;50.904;6.670;2023-03-31T07:24:20;2.40;;;1.10;;
15480;SDS011;7842;50.904;6.670;2023-03-31T07:26:46;2.13;;;0.88;;
15480;SDS011;7842;50.904;6.670;2023-03-31T07:29:12;1.75;;;0.90;;
15480;SDS011;7842;50.904;6.670;2023-03-31T07:31:38;3.90;;;0.93;;
15480;SDS011;7842;50.904;6.670;2023-03-31T07:34:04;2.78;;;1.00;;
15480;SDS011;7842;50.904;6.670;2023-03-31T07:36:30;2.80;;;1.40;;
15480;SDS011;7842;50.904;6.670;2023-03-31T07:38:55;3.38;;;1.30;;
15480;SDS011;7842;50.904;6.670;2023-03-31T07:41:21;2.90;;;1.20;;
15480;SDS011;7842;50.904;6.670;2023-03-31T07:43:48;3.22;;;1.30;;
15480;SDS011;7842;50.904;6.670;2023-03-31T07:46:16;4.37;;;1.30;;
15480;SDS011;7842;50.904;6.670;2023-03-31T07:48:44;2.83;;;1.02;;
15480;SDS011;7842;50.904;6.670;2023-03-31T07:51:11;2.88;;;1.20;;
15480;SDS011;7842;50.904;6.670;2023-03-31T07:53:38;3.10;;;1.20;;
15480;SDS011;7842;50.904;6.670;2023-03-31T07:56:04;4.50;;;1.40;;
15480;SDS011;7842;50.904;6.670;2023-03-31T07:58:30;4.83;;;1.37;;
15480;SDS011;7842;50.904;6.670;2023-03-31T08:00:55;3.85;;;1.30;;
15480;SDS011;7842;50.904;6.670;2023-03-31T08:03:21;4.55;;;1.35;;
15480;SDS011;7842;50.904;6.670;2023-03-31T08:05:50;6.70;;;1.58;;
15480;SDS011;7842;50.904;6.670;2023-03-31T08:08:16;4.55;;;1.70;;
15480;SDS011;7842;50.904;6.670;2023-03-31T08:10:42;5.22;;;1.65;;
15480;SDS011;7842;50.904;6.670;2023-03-31T08:13:07;4.28;;;1.67;;
15480;SDS011;7842;50.904;6.670;2023-03-31T08:15:36;4.75;;;1.80;;
15480;SDS011;7842;50.904;6.670;2023-03-31T08:18:02;5.85;;;1.60;;
15480;SDS011;7842;50.904;6.670;2023-03-31T08:20:28;4.37;;;1.50;;
15480;SDS011;7842;50.904;6.670;2023-03-31T08:22:54;3.85;;;1.33;;
15480;SDS011;7842;50.904;6.670;2023-03-31T08:25:20;4.90;;;1.87;;
15480;SDS011;7842;50.904;6.670;2023-03-31T08:27:47;5.03;;;1.88;;
15480;SDS011;7842;50.904;6.670;2023-03-31T08:30:15;5.87;;;1.67;;
15480;SDS011;7842;50.904;6.670;2023-03-31T08:32:42;5.07;;;1.58;;
15480;SDS011;7842;50.904;6.670;2023-03-31T08:35:08;7.32;;;2.20;;
15480;SDS011;7842;50.904;6.670;2023-03-31T08:37:34;5.65;;;1.83;;
15480;SDS011;7842;50.904;6.670;2023-03-31T08:40:01;6.32;;;2.13;;
15480;SDS011;7842;50.904;6.670;2023-03-31T08:42:44;6.55;;;1.95;;
15480;SDS011;7842;50.904;6.670;2023-03-31T08:45:21;9.32;;;2.40;;
15480;SDS011;7842;50.904;6.670;2023-03-31T08:47:49;7.40;;;2.03;;
15480;SDS011;7842;50.904;6.670;2023-03-31T08:50:18;6.55;;;2.40;;
15480;SDS011;7842;50.904;6.670;2023-03-31T08:52:51;6.50;;;2.30;;
15480;SDS011;7842;50.904;6.670;2023-03-31T08:55:24;7.47;;;2.05;;
15480;SDS011;7842;50.904;6.670;2023-03-31T08:58:08;5.18;;;2.10;;
15480;SDS011;7842;50.904;6.670;2023-03-31T09:01:00;5.63;;;1.83;;
15480;SDS011;7842;50.904;6.670;2023-03-31T09:03:27;6.10;;;1.98;;
15480;SDS011;7842;50.904;6.670;2023-03-31T09:05:59;6.47;;;2.00;;
15480;SDS011;7842;50.904;6.670;2023-03-31T09:18:38;6.85;;;2.25;;
15480;SDS011;7842;50.904;6.670;2023-03-31T09:24:14;4.90;;;1.95;;
15480;SDS011;7842;50.904;6.670;2023-03-31T09:26:45;6.33;;;1.87;;
15480;SDS011;7842;50.904;6.670;2023-03-31T09:29:20;6.23;;;1.57;;
15480;SDS011;7842;50.904;6.670;2023-03-31T09:31:48;5.35;;;1.95;;
15480;SDS011;7842;50.904;6.670;2023-03-31T09:34:31;7.60;;;2.17;;
15480;SDS011;7842;50.904;6.670;2023-03-31T09:36:58;6.18;;;1.80;;
15480;SDS011;7842;50.904;6.670;2023-03-31T09:39:24;6.07;;;1.88;;
15480;SDS011;7842;50.904;6.670;2023-03-31T09:41:50;7.40;;;2.07;;
15480;SDS011;7842;50.904;6.670;2023-03-31T09:44:22;8.15;;;2.10;;
15480;SDS011;7842;50.904;6.670;2023-03-31T09:46:49;6.13;;;1.90;;
15480;SDS011;7842;50.904;6.670;2023-03-31T09:49:17;7.53;;;1.92;;
15480;SDS011;7842;50.904;6.670;2023-03-31T09:51:44;5.85;;;2.25;;
15480;SDS011;7842;50.904;6.670;2023-03-31T09:59:11;9.57;;;2.40;;
15480;SDS011;7842;50.904;6.670;2023-03-31T10:01:43;6.28;;;1.90;;
15480;SDS011;7842;50.904;6.670;2023-03-31T10:06:42;6.78;;;2.17;;
15480;SDS011;7842;50.904;6.670;2023-03-31T10:09:09;6.55;;;1.90;;
15480;SDS011;7842;50.904;6.670;2023-03-31T10:11:35;6.97;;;2.25;;
15480;SDS011;7842;50.904;6.670;2023-03-31T10:14:12;6.88;;;2.05;;
15480;SDS011;7842;50.904;6.670;2023-03-31T10:19:10;7.35;;;1.85;;
15480;SDS011;7842;50.904;6.670;2023-03-31T10:21:37;5.53;;;1.85;;
15480;SDS011;7842;50.904;6.670;2023-03-31T10:24:06;5.47;;;2.00;;
15480;SDS011;7842;50.904;6.670;2023-03-31T10:26:33;8.30;;;2.50;;
15480;SDS011;7842;50.904;6.670;2023-03-31T10:29:00;8.63;;;2.07;;
15480;SDS011;7842;50.904;6.670;2023-03-31T10:31:33;8.43;;;2.55;;
15480;SDS011;7842;50.904;6.670;2023-03-31T10:34:04;7.93;;;2.30;;
15480;SDS011;7842;50.904;6.670;2023-03-31T10:36:30;5.03;;;1.75;;
15480;SDS011;7842;50.904;6.670;2023-03-31T10:38:56;5.27;;;1.93;;
15480;SDS011;7842;50.904;6.670;2023-03-31T10:41:23;8.32;;;2.00;;
15480;SDS011;7842;50.904;6.670;2023-03-31T10:43:53;6.85;;;1.88;;
15480;SDS011;7842;50.904;6.670;2023-03-31T10:46:20;5.18;;;1.83;;
15480;SDS011;7842;50.904;6.670;2023-03-31T10:49:12;6.25;;;1.85;;
15480;SDS011;7842;50.904;6.670;2023-03-31T10:51:54;6.32;;;1.90;;
15480;SDS011;7842;50.904;6.670;2023-03-31T10:54:21;4.57;;;1.63;;
15480;SDS011;7842;50.904;6.670;2023-03-31T10:56:54;4.75;;;1.73;;
15480;SDS011;7842;50.904;6.670;2023-03-31T11:04:59;4.13;;;1.38;;
15480;SDS011;7842;50.904;6.670;2023-03-31T11:21:49;5.18;;;1.70;;
15480;SDS011;7842;50.904;6.670;2023-03-31T11:27:23;6.23;;;2.20;;
15480;SDS011;7842;50.904;6.670;2023-03-31T11:40:44;7.93;;;2.30;;
15480;SDS011;7842;50.904;6.670;2023-03-31T11:54:05;7.55;;;2.28;;
15480;SDS011;7842;50.904;6.670;2023-03-31T11:56:38;10.65;;;2.40;;
15480;SDS011;7842;50.904;6.670;2023-03-31T11:59:05;9.68;;;2.22;;
15480;SDS011;7842;50.904;6.670;2023-03-31T12:04:39;7.97;;;2.20;;
15480;SDS011;7842;50.904;6.670;2023-03-31T12:12:48;6.22;;;1.65;;
15480;SDS011;7842;50.904;6.670;2023-03-31T12:15:22;6.10;;;1.75;;
15480;SDS011;7842;50.904;6.670;2023-03-31T12:18:01;5.97;;;1.70;;
15480;SDS011;7842;50.904;6.670;2023-03-31T12:20:35;7.47;;;1.80;;
15480;SDS011;7842;50.904;6.670;2023-03-31T12:23:09;5.75;;;1.83;;
15480;SDS011;7842;50.904;6.670;2023-03-31T12:25:45;4.63;;;1.80;;
15480;SDS011;7842;50.904;6.670;2023-03-31T12:28:18;6.65;;;1.85;;
15480;SDS011;7842;50.904;6.670;2023-03-31T12:30:44;6.63;;;1.95;;
15480;SDS011;7842;50.904;6.670;2023-03-31T12:33:19;5.07;;;1.75;;
15480;SDS011;7842;50.904;6.670;2023-03-31T12:44:13;6.47;;;1.65;;
15480;SDS011;7842;50.904;6.670;2023-03-31T12:47:01;5.90;;;1.80;;
15480;SDS011;7842;50.904;6.670;2023-03-31T12:55:36;5.25;;;1.70;;
15480;SDS011;7842;50.904;6.670;2023-03-31T13:08:59;4.60;;;1.50;;
15480;SDS011;7842;50.904;6.670;2023-03-31T13:16:30;5.17;;;1.40;;
15480;SDS011;7842;50.904;6.670;2023-03-31T13:18:56;4.50;;;1.52;;
15480;SDS011;7842;50.904;6.670;2023-03-31T13:21:23;5.40;;;1.67;;
15480;SDS011;7842;50.904;6.670;2023-03-31T13:23:49;6.28;;;1.77;;
15480;SDS011;7842;50.904;6.670;2023-03-31T13:34:23;6.13;;;2.00;;
15480;SDS011;7842;50.904;6.670;2023-03-31T13:42:37;3.97;;;1.15;;
15480;SDS011;7842;50.904;6.670;2023-03-31T13:53:27;3.35;;;1.35;;
15480;SDS011;7842;50.904;6.670;2023-03-31T13:56:22;3.42;;;1.00;;
15480;SDS011;7842;50.904;6.670;2023-03-31T14:01:40;4.05;;;1.38;;
15480;SDS011;7842;50.904;6.670;2023-03-31T14:07:17;3.25;;;1.42;;
15480;SDS011;7842;50.904;6.670;2023-03-31T14:09:46;3.40;;;1.10;;
15480;SDS011;7842;50.904;6.670;2023-03-31T14:12:47;3.43;;;1.03;;
15480;SDS011;7842;50.904;6.670;2023-03-31T14:15:16;3.47;;;1.20;;
15480;SDS011;7842;50.904;6.670;2023-03-31T14:17:43;2.47;;;1.00;;
15480;SDS011;7842;50.904;6.670;2023-03-31T14:26:08;2.42;;;1.00;;
15480;SDS011;7842;50.904;6.670;2023-03-31T14:37:52;5.00;;;1.48;;
15480;SDS011;7842;50.904;6.670;2023-03-31T14:40:19;4.75;;;1.40;;
15480;SDS011;7842;50.904;6.670;2023-03-31T14:42:45;3.88;;;1.20;;
15480;SDS011;7842;50.904;6.670;2023-03-31T14:45:15;3.22;;;1.27;;
15480;SDS011;7842;50.904;6.670;2023-03-31T14:50:37;4.75;;;1.58;;
15480;SDS011;7842;50.904;6.670;2023-03-31T14:53:18;4.70;;;1.33;;
15480;SDS011;7842;50.904;6.670;2023-03-31T14:55:54;5.18;;;1.35;;
15480;SDS011;7842;50.904;6.670;2023-03-31T14:58:31;4.87;;;1.40;;
15480;SDS011;7842;50.904;6.670;2023-03-31T15:01:03;4.03;;;1.40;;
15480;SDS011;7842;50.904;6.670;2023-03-31T15:03:32;5.15;;;1.35;;
15480;SDS011;7842;50.904;6.670;2023-03-31T15:05:59;4.15;;;1.23;;
15480;SDS011;7842;50.904;6.670;2023-03-31T15:08:26;5.38;;;1.65;;
15480;SDS011;7842;50.904;6.670;2023-03-31T15:10:55;3.67;;;1.30;;
15480;SDS011;7842;50.904;6.670;2023-03-31T15:13:35;3.85;;;1.10;;
15480;SDS011;7842;50.904;6.670;2023-03-31T15:16:19;4.15;;;1.20;;
15480;SDS011;7842;50.904;6.670;2023-03-31T15:19:22;3.40;;;1.27;;
15480;SDS011;7842;50.904;6.670;2023-03-31T15:24:45;3.50;;;1.17;;
15480;SDS011;7842;50.904;6.670;2023-03-31T15:29:46;3.90;;;1.13;;
15480;SDS011;7842;50.904;6.670;2023-03-31T15:32:20;4.60;;;1.20;;
15480;SDS011;7842;50.904;6.670;2023-03-31T15:34:50;3.13;;;1.30;;
15480;SDS011;7842;50.904;6.670;2023-03-31T15:37:18;3.28;;;1.23;;
15480;SDS011;7842;50.904;6.670;2023-03-31T15:39:51;4.07;;;1.17;;
15480;SDS011;7842;50.904;6.670;2023-03-31T15:42:22;3.75;;;1.00;;
15480;SDS011;7842;50.904;6.670;2023-03-31T15:47:53;4.30;;;1.33;;
15480;SDS011;7842;50.904;6.670;2023-03-31T15:50:20;4.15;;;1.17;;
15480;SDS011;7842;50.904;6.670;2023-03-31T15:52:50;4.47;;;1.42;;
15480;SDS011;7842;50.904;6.670;2023-03-31T15:57:51;5.30;;;2.10;;
15480;SDS011;7842;50.904;6.670;2023-03-31T16:02:59;3.13;;;1.13;;
15480;SDS011;7842;50.904;6.670;2023-03-31T16:08:00;4.32;;;1.30;;
15480;SDS011;7842;50.904;6.670;2023-03-31T16:10:27;3.63;;;1.20;;
15480;SDS011;7842;50.904;6.670;2023-03-31T16:15:20;3.88;;;1.20;;
15480;SDS011;7842;50.904;6.670;2023-03-31T16:17:53;3.63;;;1.27;;
15480;SDS011;7842;50.904;6.670;2023-03-31T16:20:22;4.80;;;1.23;;
15480;SDS011;7842;50.904;6.670;2023-03-31T16:22:50;4.78;;;1.20;;
15480;SDS011;7842;50.904;6.670;2023-03-31T16:25:18;4.83;;;1.47;;
15480;SDS011;7842;50.904;6.670;2023-03-31T16:27:46;4.00;;;1.35;;
15480;SDS011;7842;50.904;6.670;2023-03-31T16:30:17;4.95;;;1.38;;
15480;SDS011;7842;50.904;6.670;2023-03-31T16:35:40;3.60;;;1.47;;
15480;SDS011;7842;50.904;6.670;2023-03-31T16:38:08;3.30;;;1.30;;
15480;SDS011;7842;50.904;6.670;2023-03-31T16:40:35;3.97;;;1.10;;
15480;SDS011;7842;50.904;6.670;2023-03-31T16:43:09;3.28;;;1.10;;
15480;SDS011;7842;50.904;6.670;2023-03-31T16:45:35;2.88;;;1.05;;
15480;SDS011;7842;50.904;6.670;2023-03-31T16:48:02;3.38;;;1.13;;
15480;SDS011;7842;50.904;6.670;2023-03-31T16:50:28;2.80;;;1.23;;
15480;SDS011;7842;50.904;6.670;2023-03-31T16:52:55;3.57;;;1.13;;
15480;SDS011;7842;50.904;6.670;2023-03-31T16:55:21;9.10;;;4.15;;
15480;SDS011;7842;50.904;6.670;2023-03-31T16:57:47;4.07;;;1.50;;
15480;SDS011;7842;50.904;6.670;2023-03-31T17:00:13;3.45;;;1.30;;
15480;SDS011;7842;50.904;6.670;2023-03-31T17:02:39;5.50;;;3.30;;
15480;SDS011;7842;50.904;6.670;2023-03-31T17:05:06;3.42;;;1.65;;
15480;SDS011;7842;50.904;6.670;2023-03-31T17:07:32;3.28;;;1.17;;
15480;SDS011;7842;50.904;6.670;2023-03-31T17:09:58;3.72;;;1.10;;
15480;SDS011;7842;50.904;6.670;2023-03-31T17:12:24;2.60;;;1.05;;
15480;SDS011;7842;50.904;6.670;2023-03-31T17:14:50;2.22;;;1.10;;
15480;SDS011;7842;50.904;6.670;2023-03-31T17:17:16;4.15;;;1.30;;
15480;SDS011;7842;50.904;6.670;2023-03-31T17:19:42;3.90;;;1.40;;
15480;SDS011;7842;50.904;6.670;2023-03-31T17:22:11;2.83;;;1.10;;
15480;SDS011;7842;50.904;6.670;2023-03-31T17:24:36;4.22;;;1.83;;
15480;SDS011;7842;50.904;6.670;2023-03-31T17:27:02;4.25;;;1.40;;
15480;SDS011;7842;50.904;6.670;2023-03-31T17:29:28;3.03;;;1.20;;
15480;SDS011;7842;50.904;6.670;2023-03-31T17:31:54;4.25;;;1.20;;
15480;SDS011;7842;50.904;6.670;2023-03-31T17:34:20;3.63;;;0.93;;
15480;SDS011;7842;50.904;6.670;2023-03-31T17:36:46;4.18;;;1.17;;
15480;SDS011;7842;50.904;6.670;2023-03-31T17:39:15;4.50;;;1.20;;
15480;SDS011;7842;50.904;6.670;2023-03-31T17:41:41;3.42;;;1.23;;
15480;SDS011;7842;50.904;6.670;2023-03-31T17:44:07;3.42;;;1.10;;
15480;SDS011;7842;50.904;6.670;2023-03-31T17:46:34;4.65;;;1.20;;
15480;SDS011;7842;50.904;6.670;2023-03-31T17:48:59;2.90;;;1.50;;
15480;SDS011;7842;50.904;6.670;2023-03-31T17:51:26;4.22;;;1.30;;
15480;SDS011;7842;50.904;6.670;2023-03-31T17:53:52;3.20;;;1.35;;
15480;SDS011;7842;50.904;6.670;2023-03-31T17:56:18;3.17;;;1.10;;
15480;SDS011;7842;50.904;6.670;2023-03-31T17:58:43;3.40;;;1.23;;
15480;SDS011;7842;50.904;6.670;2023-03-31T18:01:10;3.65;;;1.27;;
15480;SDS011;7842;50.904;6.670;2023-03-31T18:03:36;2.88;;;1.30;;
15480;SDS011;7842;50.904;6.670;2023-03-31T18:06:05;3.80;;;1.47;;
15480;SDS011;7842;50.904;6.670;2023-03-31T18:08:33;4.03;;;1.58;;
15480;SDS011;7842;50.904;6.670;2023-03-31T18:10:59;3.47;;;1.30;;
15480;SDS011;7842;50.904;6.670;2023-03-31T18:13:25;3.85;;;1.35;;
15480;SDS011;7842;50.904;6.670;2023-03-31T18:15:51;4.63;;;1.40;;
15480;SDS011;7842;50.904;6.670;2023-03-31T18:18:18;3.42;;;1.13;;
15480;SDS011;7842;50.904;6.670;2023-03-31T18:20:47;4.40;;;1.30;;
15480;SDS011;7842;50.904;6.670;2023-03-31T18:23:12;3.30;;;1.08;;
15480;SDS011;7842;50.904;6.670;2023-03-31T18:25:41;3.22;;;1.10;;
15480;SDS011;7842;50.904;6.670;2023-03-31T18:28:09;3.80;;;1.00;;
15480;SDS011;7842;50.904;6.670;2023-03-31T18:30:37;2.58;;;1.13;;
15480;SDS011;7842;50.904;6.670;2023-03-31T18:33:03;3.97;;;1.40;;
15480;SDS011;7842;50.904;6.670;2023-03-31T18:35:35;3.30;;;1.45;;
15480;SDS011;7842;50.904;6.670;2023-03-31T18:38:01;4.07;;;1.30;;
15480;SDS011;7842;50.904;6.670;2023-03-31T18:40:31;3.90;;;1.42;;
15480;SDS011;7842;50.904;6.670;2023-03-31T18:42:57;3.67;;;1.45;;
15480;SDS011;7842;50.904;6.670;2023-03-31T18:45:31;4.38;;;1.45;;
15480;SDS011;7842;50.904;6.670;2023-03-31T18:47:57;3.35;;;1.20;;
15480;SDS011;7842;50.904;6.670;2023-03-31T18:50:24;4.13;;;1.60;;
15480;SDS011;7842;50.904;6.670;2023-03-31T18:52:50;6.97;;;1.80;;